Airfield :
LOGIN :

Register | Disclaimer

   EN    FR    IT 

 










Legend :    VFR   Marginal VFR   IFR   Intensive IFR   Very Intensive IFR
Visi :
Ceiling :
>= 8 km
>= 3000ft
5 to 8 km
1000 to 3000 ft
1500m to 5 km
500 to 1000 ft
800 to 1500m
200 to 500 ft
< 800m
< 200 ft
Symbols :   Thunderstorms  Fog  Heavy snow  Heavy precipitations  Wind > 20 kt
SIGMETs :     Misc.  Thunderstorms  Icing  Turbulence  Mountain Waves  Volcanic Ashes







- Airport Elevation : 26 ft


ETNT - Wittmundhaven AB

CURRENT METAR :
  • 211720Z AUTO 16006KT 7000 // ////// 13/12 Q1008 ///

EXPIRED METARs :
  • 211620Z AUTO 15006KT 9999 // ////// 13/12 Q1008 ///
  • 211520Z AUTO 18007KT 9999 // ////// 14/12 Q1008 ///

TAF TAF ETNT
Valid from the 21 at 17:00 until the 22 at 02:00 UTC


211615Z 2117/2202 18008KT 9999 NSW SCT015 BKN030
TEMPO 2117/2202 20012G22KT 4000 SHRA BKN012 BKN030TCU CANCEL BY ETGL
No reported NOTAMs for that airfield.



MET'MAP, your aeronautical weather chart ! - Copyright ORBIFLY December 2007 - Disclaimer

ORBIFLY MET'MAP TEAM :

Programming & Development : Alexandra Zaïnal
Concept & Development : Baudouin d'Aumeries
Co-Development & Prog : Marc-Olivier Méhu
Technical & hardware support : Manuel Goepfert

Contact : metmap@orbifly.com




SOURCES & CREDITS :

   NOAA